Linda Fortune — 3FOW6 — position and weather

sailwx.info

Track history (hours):
 
Tides and Currents Weather Stations Pressure Air Temp Water Temp Dewpoint Dewpoint Depression Visibility Wind Speed Wind Dir Waves Ship Positions

Linda Fortune

Last reported at 2017-Dec-11 00:27 UTC. Time now 2017-Dec-13 20:35 UTC.
Position N 25°12' E 122°38'.

Length 281 m; draft 18.1 m.

Type: Cargo ship. MMSI: 352793000.

Date/timePositionNaut miles runAvg speedWind from/ knotsBaromVisibWave heightAir tempDewpointWater temp
2017-Dec-11 00:27N 25°12' E 122°38'4 9.0
2017-Dec-11 00:00N 25°08' E 122°37'4 8.8
2017-Dec-10 23:30N 25°04' E 122°36'4 8.6
2017-Dec-10 23:00N 24°60' E 122°34'4 8.3
2017-Dec-10 22:30N 24°56' E 122°33'4 8.6
2017-Dec-10 22:00N 24°51' E 122°32'4 8.5
2017-Dec-10 21:30N 24°47' E 122°30'4 8.0
2017-Dec-10 21:00N 24°44' E 122°29'4 8.2
2017-Dec-10 20:29N 24°39' E 122°28'4 8.6
2017-Dec-10 20:00N 24°36' E 122°27'4 8.8
2017-Dec-10 19:30N 24°31' E 122°25'4 8.7
2017-Dec-10 19:00N 24°27' E 122°24'4 9.0
2017-Dec-10 18:30N 24°23' E 122°22'5 9.3
2017-Dec-10 18:00N 24°18' E 122°21'5 9.6
2017-Dec-10 17:30N 24°14' E 122°20'5 9.8
2017-Dec-10 17:00N 24°09' E 122°18'5 9.8
2017-Dec-10 16:30N 24°04' E 122°17'510.0
2017-Dec-10 16:00N 23°60' E 122°15'5 9.9
2017-Dec-10 15:30N 23°55' E 122°14'510.1
2017-Dec-10 15:00N 23°50' E 122°12'5410.8
2017-Dec-10 10:02N 22°59' E 121°54'213.5
2017-Dec-10 09:51N 22°57' E 121°52'513.6
2017-Dec-10 09:30N 22°53' E 121°50'613.1
2017-Dec-10 09:01N 22°47' E 121°46'611.0
2017-Dec-10 08:29N 22°42' E 121°43'1610.5
2017-Dec-10 06:58N 22°29' E 121°34'510.6
2017-Dec-10 06:27N 22°24' E 121°31'1510.9
2017-Dec-10 05:02N 22°11' E 121°22'111.2
2017-Dec-10 04:54N 22°10' E 121°21'611.2
2017-Dec-10 04:24N 22°05' E 121°18'510.7
2017-Dec-10 03:57N 22°00' E 121°17'  
Track history (hours):
 
Tides and Currents Weather Stations Pressure Air Temp Water Temp Dewpoint Dewpoint Depression Visibility Wind Speed Wind Dir Waves Ship Positions

Linda Fortune

Last reported at 2017-Dec-11 00:27 UTC. Time now 2017-Dec-13 20:35 UTC.
Position N 25°12' E 122°38'.

Length 281 m; draft 18.1 m.

Type: Cargo ship. MMSI: 352793000.

Date/timePositionNaut miles runAvg speedWind from/ knotsBaromVisibWave heightAir tempDewpointWater temp
2017-Dec-11 00:27N 25°12' E 122°38'4 9.0
2017-Dec-11 00:00N 25°08' E 122°37'4 8.8
2017-Dec-10 23:30N 25°04' E 122°36'4 8.6
2017-Dec-10 23:00N 24°60' E 122°34'4 8.3
2017-Dec-10 22:30N 24°56' E 122°33'4 8.6
2017-Dec-10 22:00N 24°51' E 122°32'4 8.5
2017-Dec-10 21:30N 24°47' E 122°30'4 8.0
2017-Dec-10 21:00N 24°44' E 122°29'4 8.2
2017-Dec-10 20:29N 24°39' E 122°28'4 8.6
2017-Dec-10 20:00N 24°36' E 122°27'4 8.8
2017-Dec-10 19:30N 24°31' E 122°25'4 8.7
2017-Dec-10 19:00N 24°27' E 122°24'4 9.0
2017-Dec-10 18:30N 24°23' E 122°22'5 9.3
2017-Dec-10 18:00N 24°18' E 122°21'5 9.6
2017-Dec-10 17:30N 24°14' E 122°20'5 9.8
2017-Dec-10 17:00N 24°09' E 122°18'5 9.8
2017-Dec-10 16:30N 24°04' E 122°17'510.0
2017-Dec-10 16:00N 23°60' E 122°15'5 9.9
2017-Dec-10 15:30N 23°55' E 122°14'510.1
2017-Dec-10 15:00N 23°50' E 122°12'5410.8
2017-Dec-10 10:02N 22°59' E 121°54'213.5
2017-Dec-10 09:51N 22°57' E 121°52'513.6
2017-Dec-10 09:30N 22°53' E 121°50'613.1
2017-Dec-10 09:01N 22°47' E 121°46'611.0
2017-Dec-10 08:29N 22°42' E 121°43'1610.5
2017-Dec-10 06:58N 22°29' E 121°34'510.6
2017-Dec-10 06:27N 22°24' E 121°31'1510.9
2017-Dec-10 05:02N 22°11' E 121°22'111.2
2017-Dec-10 04:54N 22°10' E 121°21'611.2
2017-Dec-10 04:24N 22°05' E 121°18'510.7
2017-Dec-10 03:57N 22°00' E 121°17'  

Dump ship's entire track history